Time;durP1;ratioP1;P1;durP2;ratioP2;P2;SDS_P1;SDS_P2;PMS_P1;PMS_P2;Temp;Humidity;BMP_temperature;BMP_pressure;BME280_temperature;BME280_humidity;BME280_pressure;Samples;Min_cycle;Max_cycle;Signal;HPM_P1;HPM_P2
2023/04/02 00:00:14;;;;;;;1.13;1.13;;;9.30;99.90;;;;;;5048918;28;20184;-72
2023/04/02 00:03:02;;;;;;;0.70;0.70;;;9.30;99.90;;;;;;5058250;28;20210;-72
2023/04/02 00:05:50;;;;;;;0.85;0.85;;;9.20;99.90;;;;;;5051657;28;20530;-72
2023/04/02 00:08:37;;;;;;;5.10;3.95;;;9.10;99.90;;;;;;5052266;28;20167;-73
2023/04/02 00:11:04;;;;;;;1.77;1.08;;;8.90;99.90;;;;;;5044767;28;20183;-72
2023/04/02 00:13:35;;;;;;;0.60;0.60;;;8.80;99.90;;;;;;5052676;28;20203;-72
2023/04/02 00:16:03;;;;;;;0.98;0.98;;;8.60;99.90;;;;;;5034709;28;20233;-73
2023/04/02 00:18:29;;;;;;;1.40;1.30;;;8.50;99.90;;;;;;5054158;28;20240;-73
2023/04/02 00:21:07;;;;;;;1.10;1.10;;;8.40;99.90;;;;;;5051162;28;20184;-76
2023/04/02 00:23:39;;;;;;;1.08;0.88;;;8.30;99.90;;;;;;5054861;28;20211;-72
2023/04/02 00:26:22;;;;;;;1.10;1.10;;;8.20;99.90;;;;;;5054439;28;20194;-73
2023/04/02 00:28:49;;;;;;;1.10;1.10;;;8.20;99.90;;;;;;5048327;28;20650;-73
2023/04/02 00:31:17;;;;;;;1.02;1.02;;;8.10;99.90;;;;;;5045780;28;20173;-73
2023/04/02 00:33:43;;;;;;;1.00;0.90;;;8.10;99.90;;;;;;5058488;28;20294;-73
2023/04/02 00:36:08;;;;;;;1.20;1.10;;;8.00;99.90;;;;;;5060966;28;20229;-72
2023/04/02 00:38:34;;;;;;;1.08;0.98;;;8.10;99.90;;;;;;5052930;28;20273;-72
2023/04/02 00:41:05;;;;;;;1.02;1.02;;;8.10;99.90;;;;;;5063238;28;20658;-72
2023/04/02 00:43:37;;;;;;;1.10;1.10;;;8.00;99.90;;;;;;5053796;28;20701;-72
2023/04/02 00:46:22;;;;;;;0.90;0.90;;;8.00;99.90;;;;;;5057543;28;20191;-72
2023/04/02 00:49:01;;;;;;;1.60;1.05;;;8.00;99.90;;;;;;5046477;28;20552;-72
2023/04/02 00:51:35;;;;;;;0.82;0.82;;;7.90;99.90;;;;;;5055205;28;20176;-72
2023/04/02 00:54:05;;;;;;;0.93;0.80;;;8.00;99.90;;;;;;5058311;28;20259;-72
2023/04/02 00:56:37;;;;;;;1.02;1.02;;;8.10;99.90;;;;;;5051816;28;20259;-72
2023/04/02 00:59:04;;;;;;;1.30;0.90;;;8.00;99.90;;;;;;5059845;28;20192;-72
2023/04/02 01:01:41;;;;;;;0.77;0.77;;;8.00;99.90;;;;;;5062660;28;20286;-72
2023/04/02 01:04:27;;;;;;;0.90;0.90;;;7.90;99.90;;;;;;5055186;28;20168;-72
2023/04/02 01:06:53;;;;;;;1.20;1.00;;;8.00;99.90;;;;;;5059952;28;20270;-72
2023/04/02 01:09:56;;;;;;;0.85;0.85;;;8.00;99.90;;;;;;5059666;28;20196;-72
2023/04/02 01:12:44;;;;;;;1.63;1.05;;;7.90;99.90;;;;;;5054560;28;20282;-72
2023/04/02 01:15:34;;;;;;;1.33;1.00;;;7.90;99.90;;;;;;5066044;28;20213;-72
2023/04/02 01:18:05;;;;;;;1.17;1.10;;;7.80;99.90;;;;;;5049816;28;20545;-72
2023/04/02 01:20:58;;;;;;;0.80;0.80;;;7.80;99.90;;;;;;5058968;28;20198;-72
2023/04/02 01:23:33;;;;;;;0.95;0.95;;;7.90;99.90;;;;;;5051241;28;20211;-72
2023/04/02 01:26:22;;;;;;;0.98;0.98;;;7.90;99.90;;;;;;5057633;28;20175;-72
2023/04/02 01:29:01;;;;;;;0.90;0.90;;;7.80;99.90;;;;;;5038945;28;20188;-72
2023/04/02 01:31:28;;;;;;;1.55;0.93;;;7.80;99.90;;;;;;5060731;28;20550;-72
2023/04/02 01:33:55;;;;;;;1.05;1.05;;;7.90;99.90;;;;;;5066021;28;20199;-72
2023/04/02 01:36:47;;;;;;;2.92;1.38;;;7.90;99.90;;;;;;5055162;28;20675;-72
2023/04/02 01:39:48;;;;;;;1.20;1.10;;;7.80;99.90;;;;;;5045661;28;20194;-72
2023/04/02 01:42:34;;;;;;;1.15;1.15;;;7.80;99.90;;;;;;5050702;28;20713;-72
2023/04/02 01:45:04;;;;;;;1.33;1.23;;;7.80;99.90;;;;;;5057941;28;20184;-72
2023/04/02 01:47:31;;;;;;;0.82;0.80;;;7.80;99.90;;;;;;5035040;28;20655;-72
2023/04/02 01:50:02;;;;;;;1.08;1.08;;;7.90;99.90;;;;;;5051877;28;20208;-72
2023/04/02 01:52:39;;;;;;;1.50;1.40;;;7.90;99.90;;;;;;5062927;28;20199;-72
2023/04/02 01:55:11;;;;;;;1.05;1.05;;;7.80;99.90;;;;;;5054382;28;20596;-73
2023/04/02 01:57:40;;;;;;;1.25;1.17;;;7.90;99.90;;;;;;5055166;28;20204;-73
2023/04/02 02:00:11;;;;;;;2.03;1.38;;;7.90;99.90;;;;;;5060124;28;20175;-73
2023/04/02 02:02:37;;;;;;;1.67;1.58;;;7.90;99.90;;;;;;5056018;28;20231;-73
2023/04/02 02:05:03;;;;;;;1.55;1.45;;;7.90;99.90;;;;;;5040753;28;20211;-73
2023/04/02 02:07:29;;;;;;;1.17;1.00;;;8.00;99.90;;;;;;5051469;28;20186;-73
2023/04/02 02:09:55;;;;;;;1.30;1.08;;;8.00;99.90;;;;;;5050807;28;20267;-73
2023/04/02 02:12:21;;;;;;;1.50;1.40;;;8.00;99.90;;;;;;5054636;28;20751;-73
2023/04/02 02:14:51;;;;;;;1.33;1.23;;;8.00;99.90;;;;;;5045887;28;20270;-73
2023/04/02 02:17:22;;;;;;;1.33;1.23;;;8.00;99.90;;;;;;5055743;28;20183;-72
2023/04/02 02:19:53;;;;;;;1.15;1.15;;;8.00;99.90;;;;;;5058424;28;20194;-72
2023/04/02 02:22:24;;;;;;;3.00;1.60;;;8.00;99.90;;;;;;5046539;28;20618;-73
2023/04/02 02:24:50;;;;;;;1.55;1.45;;;7.90;99.90;;;;;;5057225;28;20187;-73
2023/04/02 02:27:22;;;;;;;1.55;1.52;;;7.90;99.90;;;;;;5059286;28;20216;-73
2023/04/02 02:29:59;;;;;;;1.55;1.48;;;7.90;99.90;;;;;;5059809;28;20170;-73
2023/04/02 02:32:28;;;;;;;1.60;1.50;;;7.90;99.90;;;;;;5055574;28;20207;-73
2023/04/02 02:34:59;;;;;;;1.33;1.20;;;7.80;99.90;;;;;;5060151;28;20446;-73
2023/04/02 02:37:29;;;;;;;1.23;1.23;;;7.90;99.90;;;;;;5056479;28;20188;-73
2023/04/02 02:39:58;;;;;;;2.20;1.33;;;7.90;99.90;;;;;;5061800;28;20194;-73
2023/04/02 02:42:30;;;;;;;2.67;1.58;;;7.90;99.90;;;;;;5057704;28;20222;-73
2023/04/02 02:44:57;;;;;;;1.70;1.60;;;8.00;99.90;;;;;;5057517;28;20176;-73
2023/04/02 02:47:27;;;;;;;1.63;1.52;;;8.00;99.90;;;;;;5056232;28;20176;-73
2023/04/02 02:49:56;;;;;;;1.73;1.02;;;7.90;99.90;;;;;;5055873;28;20255;-72
2023/04/02 02:52:25;;;;;;;1.08;1.08;;;8.00;99.90;;;;;;5058767;28;20202;-73
2023/04/02 02:54:55;;;;;;;1.10;1.00;;;7.90;99.90;;;;;;5061200;28;20183;-73
2023/04/02 02:57:27;;;;;;;2.70;1.48;;;8.00;99.90;;;;;;5055433;28;20847;-73
2023/04/02 02:59:57;;;;;;;1.02;1.02;;;8.00;99.90;;;;;;5054677;28;20200;-73
2023/04/02 03:02:24;;;;;;;1.50;1.50;;;8.00;99.90;;;;;;5059221;28;20209;-73
2023/04/02 03:04:52;;;;;;;1.20;1.20;;;7.90;99.90;;;;;;5059346;28;20194;-73
2023/04/02 03:07:20;;;;;;;1.30;1.20;;;7.90;99.90;;;;;;5055952;28;20191;-73
2023/04/02 03:10:11;;;;;;;1.52;1.20;;;7.90;99.90;;;;;;5051904;28;20680;-74
2023/04/02 03:12:57;;;;;;;1.63;1.60;;;8.00;99.90;;;;;;5056878;28;20238;-74
2023/04/02 03:15:46;;;;;;;1.33;1.27;;;7.90;99.90;;;;;;5062742;28;20270;-74
2023/04/02 03:18:31;;;;;;;1.45;1.35;;;7.90;99.90;;;;;;5058567;28;20241;-73
2023/04/02 03:21:02;;;;;;;1.50;1.42;;;7.90;99.90;;;;;;5053551;28;20718;-74
2023/04/02 03:23:44;;;;;;;1.58;1.30;;;8.00;99.90;;;;;;5038511;28;20621;-73
2023/04/02 03:26:28;;;;;;;1.27;1.23;;;7.90;99.90;;;;;;5051794;28;20186;-75
2023/04/02 03:29:00;;;;;;;1.55;1.45;;;7.90;99.90;;;;;;5053402;28;20183;-73
2023/04/02 03:31:36;;;;;;;1.75;1.65;;;7.90;99.90;;;;;;5041363;28;20223;-74
2023/04/02 03:34:31;;;;;;;1.50;1.48;;;7.80;99.90;;;;;;5060718;28;20187;-74
2023/04/02 03:37:38;;;;;;;1.73;1.63;;;7.80;99.90;;;;;;5051125;28;20175;-74
2023/04/02 03:40:10;;;;;;;4.50;1.85;;;7.70;99.90;;;;;;5045923;28;20241;-74
2023/04/02 03:42:44;;;;;;;1.40;1.38;;;7.80;99.90;;;;;;5057602;28;21052;-74
2023/04/02 03:45:21;;;;;;;2.80;1.90;;;7.80;99.90;;;;;;5053862;28;20183;-74
2023/04/02 03:48:04;;;;;;;1.60;1.50;;;7.80;99.90;;;;;;5050277;28;20544;-74
2023/04/02 03:50:54;;;;;;;2.05;1.50;;;7.80;99.90;;;;;;5054136;28;20176;-74
2023/04/02 03:53:23;;;;;;;1.63;1.30;;;7.80;99.90;;;;;;5053882;28;20295;-74
2023/04/02 03:55:50;;;;;;;1.42;1.40;;;7.80;99.90;;;;;;5050415;28;20210;-72
2023/04/02 03:58:24;;;;;;;1.52;1.40;;;7.90;99.90;;;;;;5055180;28;20226;-73
2023/04/02 04:01:01;;;;;;;1.60;1.50;;;7.90;99.90;;;;;;5049489;28;20189;-72
2023/04/02 04:03:40;;;;;;;2.00;1.80;;;7.90;99.90;;;;;;5037448;28;20248;-74
2023/04/02 04:06:15;;;;;;;1.42;1.42;;;7.90;99.90;;;;;;5049859;28;20180;-74
2023/04/02 04:09:07;;;;;;;1.90;1.50;;;7.90;99.90;;;;;;5047112;28;20171;-73
2023/04/02 04:11:37;;;;;;;1.27;1.23;;;8.00;99.90;;;;;;5026052;28;20202;-72
2023/04/02 04:14:14;;;;;;;1.60;1.60;;;8.00;99.90;;;;;;5052444;28;20211;-73
2023/04/02 04:17:03;;;;;;;1.45;1.35;;;7.90;99.90;;;;;;5052188;28;20186;-73
2023/04/02 04:19:53;;;;;;;1.88;1.77;;;7.90;99.90;;;;;;5049647;28;20231;-73
2023/04/02 04:22:29;;;;;;;2.28;1.63;;;8.00;99.90;;;;;;5054540;28;20211;-74
2023/04/02 04:24:59;;;;;;;1.38;1.33;;;8.00;99.90;;;;;;5049063;28;20175;-73
2023/04/02 04:27:32;;;;;;;1.80;1.67;;;7.90;99.90;;;;;;5055678;28;20716;-73
2023/04/02 04:30:33;;;;;;;1.90;1.80;;;7.90;99.90;;;;;;5058541;28;20238;-72
2023/04/02 04:33:14;;;;;;;2.95;1.50;;;7.90;99.90;;;;;;5034303;28;20214;-73
2023/04/02 04:35:47;;;;;;;1.70;1.60;;;8.00;99.90;;;;;;5057459;28;20202;-72
2023/04/02 04:38:26;;;;;;;1.90;1.80;;;8.00;99.90;;;;;;5055553;28;20279;-71
2023/04/02 04:40:56;;;;;;;2.58;1.50;;;8.00;99.90;;;;;;5054936;28;20222;-71
2023/04/02 04:43:39;;;;;;;1.80;1.70;;;8.00;99.90;;;;;;5057284;28;20208;-72
2023/04/02 04:46:11;;;;;;;1.75;1.45;;;8.10;99.90;;;;;;5059955;28;20541;-72
2023/04/02 04:48:54;;;;;;;1.73;1.50;;;8.00;99.90;;;;;;5048793;28;20262;-72
2023/04/02 04:51:26;;;;;;;1.52;1.20;;;8.00;99.90;;;;;;5054434;28;20254;-71
2023/04/02 04:53:54;;;;;;;1.60;1.50;;;8.00;99.90;;;;;;5057888;28;20674;-74
2023/04/02 04:56:29;;;;;;;1.45;1.35;;;8.00;99.90;;;;;;5051703;28;20207;-73
2023/04/02 04:58:58;;;;;;;1.35;1.35;;;8.00;99.90;;;;;;5058738;28;20185;-73
2023/04/02 05:01:32;;;;;;;1.40;1.40;;;8.00;99.90;;;;;;5055032;28;20722;-73
2023/04/02 05:04:15;;;;;;;1.30;1.20;;;8.00;99.90;;;;;;5055002;28;20203;-73
2023/04/02 05:07:03;;;;;;;1.20;1.20;;;8.10;99.90;;;;;;5057882;28;20292;-75
2023/04/02 05:09:42;;;;;;;1.50;1.40;;;8.10;99.90;;;;;;5059173;28;20172;-74
2023/04/02 05:12:27;;;;;;;1.73;1.67;;;8.10;99.90;;;;;;5058557;28;20214;-73
2023/04/02 05:15:05;;;;;;;1.63;1.50;;;8.10;99.90;;;;;;5053142;28;20686;-75
2023/04/02 05:17:40;;;;;;;2.08;1.30;;;8.10;99.90;;;;;;5052439;28;20643;-76
2023/04/02 05:20:20;;;;;;;1.23;1.23;;;8.10;99.90;;;;;;5054379;28;20229;-76
2023/04/02 05:23:10;;;;;;;1.73;1.60;;;8.10;99.90;;;;;;5048272;28;20219;-75
2023/04/02 05:25:37;;;;;;;1.48;1.38;;;8.10;99.90;;;;;;5040370;28;20675;-76
2023/04/02 05:28:18;;;;;;;1.55;1.45;;;8.10;99.90;;;;;;5054575;28;20191;-76
2023/04/02 05:30:48;;;;;;;2.10;1.90;;;8.10;99.90;;;;;;5054274;28;20677;-75
2023/04/02 05:33:26;;;;;;;1.50;1.50;;;8.00;99.90;;;;;;5039170;28;20215;-76
2023/04/02 05:36:25;;;;;;;1.40;1.40;;;8.00;99.90;;;;;;5054081;28;20679;-75
2023/04/02 05:38:52;;;;;;;1.73;1.48;;;8.10;99.90;;;;;;5032881;28;20227;-75
2023/04/02 05:41:35;;;;;;;1.60;1.50;;;8.10;99.90;;;;;;5049462;28;20756;-75
2023/04/02 05:44:21;;;;;;;1.48;1.48;;;8.10;99.90;;;;;;5053180;28;20196;-73
2023/04/02 05:47:01;;;;;;;1.90;1.80;;;8.10;99.90;;;;;;5055290;28;20175;-74
2023/04/02 05:49:38;;;;;;;1.58;1.48;;;8.10;99.90;;;;;;5057313;28;20191;-74
2023/04/02 05:52:08;;;;;;;1.67;1.58;;;8.00;99.90;;;;;;5039377;28;20207;-74
2023/04/02 05:54:42;;;;;;;1.92;1.83;;;8.10;99.90;;;;;;5055038;28;20204;-74
2023/04/02 05:57:35;;;;;;;2.10;2.00;;;8.10;99.90;;;;;;5052288;28;20187;-74
2023/04/02 06:00:06;;;;;;;1.92;1.83;;;8.20;99.90;;;;;;5050006;28;20176;-74
2023/04/02 06:02:52;;;;;;;1.80;1.70;;;8.20;99.90;;;;;;5050087;28;20215;-74
2023/04/02 06:05:22;;;;;;;2.20;2.00;;;8.20;99.90;;;;;;5049768;28;20268;-76
2023/04/02 06:08:15;;;;;;;1.85;1.75;;;8.30;99.90;;;;;;5048830;28;20175;-75
2023/04/02 06:11:13;;;;;;;1.88;1.77;;;8.30;99.90;;;;;;5052366;28;20239;-74
2023/04/02 06:13:39;;;;;;;2.55;1.83;;;8.20;99.90;;;;;;5057754;28;20333;-75
2023/04/02 06:16:05;;;;;;;2.13;1.75;;;8.20;99.90;;;;;;5058652;28;20183;-74
2023/04/02 06:18:35;;;;;;;2.30;2.10;;;8.20;99.90;;;;;;5063589;28;20176;-75
2023/04/02 06:21:02;;;;;;;2.00;1.90;;;8.30;99.90;;;;;;5055441;28;20187;-74
2023/04/02 06:23:42;;;;;;;2.45;2.28;;;8.30;99.90;;;;;;5055587;28;20261;-74
2023/04/02 06:26:23;;;;;;;2.08;1.98;;;8.30;99.90;;;;;;5058579;28;20236;-74
2023/04/02 06:28:55;;;;;;;1.65;1.65;;;8.30;99.90;;;;;;5046314;28;20181;-74
2023/04/02 06:31:55;;;;;;;2.10;2.00;;;8.40;99.90;;;;;;5059829;28;20183;-74
2023/04/02 06:34:24;;;;;;;1.98;1.80;;;8.40;99.90;;;;;;5049005;28;20223;-76
2023/04/02 06:36:54;;;;;;;3.72;2.28;;;8.50;99.90;;;;;;5058970;28;20175;-75
2023/04/02 06:39:23;;;;;;;1.70;1.60;;;8.50;99.90;;;;;;5048483;28;20194;-75
2023/04/02 06:42:09;;;;;;;1.27;1.25;;;8.60;99.90;;;;;;5058845;28;20226;-76
2023/04/02 06:44:36;;;;;;;2.00;1.80;;;8.60;99.90;;;;;;5058558;28;20229;-76
2023/04/02 06:47:12;;;;;;;1.70;1.60;;;8.70;99.90;;;;;;5055591;28;20176;-76
2023/04/02 06:50:12;;;;;;;1.70;1.60;;;8.80;99.90;;;;;;5054926;28;20218;-76
2023/04/02 06:52:48;;;;;;;1.80;1.70;;;8.90;99.90;;;;;;5054221;28;20215;-76
2023/04/02 06:55:38;;;;;;;2.15;1.70;;;9.00;99.90;;;;;;5048769;28;20176;-76
2023/04/02 06:58:04;;;;;;;1.38;1.27;;;9.10;99.90;;;;;;5053639;28;20185;-77
2023/04/02 07:00:37;;;;;;;1.95;1.30;;;9.20;99.90;;;;;;5052904;28;20187;-76
2023/04/02 07:03:06;;;;;;;2.83;1.50;;;9.20;99.90;;;;;;5043597;28;20211;-78
2023/04/02 07:05:32;;;;;;;1.20;1.20;;;9.30;99.90;;;;;;5058617;28;20214;-83
2023/04/02 07:07:58;;;;;;;1.45;1.35;;;9.40;99.90;;;;;;5050494;28;20179;-80
2023/04/02 07:10:23;;;;;;;5.82;1.48;;;9.30;99.90;;;;;;5051826;28;20191;-80
2023/04/02 07:12:49;;;;;;;1.27;1.17;;;9.30;99.90;;;;;;5050764;28;20318;-78
2023/04/02 07:15:18;;;;;;;1.10;1.10;;;9.30;99.90;;;;;;5044597;28;20188;-79
2023/04/02 07:17:44;;;;;;;1.20;1.20;;;9.40;99.90;;;;;;5050494;28;20186;-81
2023/04/02 07:20:31;;;;;;;1.02;1.02;;;9.50;99.90;;;;;;5043392;28;20206;-79
2023/04/02 07:22:57;;;;;;;1.88;1.77;;;9.60;99.90;;;;;;5048026;28;20664;-78
2023/04/02 07:25:25;;;;;;;1.80;1.70;;;9.60;99.90;;;;;;5059530;28;20223;-79
2023/04/02 07:27:52;;;;;;;1.60;1.50;;;9.70;99.90;;;;;;5052732;28;20241;-78
2023/04/02 07:30:18;;;;;;;1.25;1.25;;;9.80;99.90;;;;;;5059224;28;20205;-78
2023/04/02 07:32:44;;;;;;;1.65;1.10;;;9.90;99.90;;;;;;5057366;28;20685;-76
2023/04/02 07:35:10;;;;;;;1.80;1.35;;;10.10;99.90;;;;;;5056425;28;20806;-76
2023/04/02 07:37:37;;;;;;;0.90;0.90;;;10.10;99.90;;;;;;5048985;28;20229;-77
2023/04/02 07:40:05;;;;;;;1.60;1.27;;;10.00;99.90;;;;;;5050767;28;20208;-77
2023/04/02 07:42:31;;;;;;;0.82;0.82;;;10.00;99.90;;;;;;5034816;28;20216;-76
2023/04/02 07:44:56;;;;;;;3.30;1.33;;;9.90;99.90;;;;;;5048177;28;20555;-78
2023/04/02 07:47:22;;;;;;;1.00;1.00;;;9.70;99.90;;;;;;5051028;28;20214;-78
2023/04/02 07:49:48;;;;;;;0.85;0.85;;;9.60;99.90;;;;;;5034353;28;20281;-75
2023/04/02 07:52:13;;;;;;;1.30;1.20;;;9.70;99.90;;;;;;5045756;28;20216;-76
2023/04/02 07:54:39;;;;;;;1.38;0.98;;;9.80;99.90;;;;;;5051584;28;20222;-77
2023/04/02 07:57:04;;;;;;;1.38;0.95;;;9.90;99.90;;;;;;5049578;28;20616;-74
2023/04/02 07:59:30;;;;;;;0.70;0.70;;;10.00;99.90;;;;;;5051374;28;20176;-75
2023/04/02 08:01:56;;;;;;;0.90;0.90;;;10.10;99.90;;;;;;5050377;28;20556;-75
2023/04/02 08:04:22;;;;;;;0.85;0.80;;;10.10;99.90;;;;;;5053417;28;20181;-77
2023/04/02 08:06:49;;;;;;;0.90;0.90;;;10.20;99.90;;;;;;5057379;28;20240;-75
2023/04/02 08:09:16;;;;;;;0.80;0.80;;;10.30;99.90;;;;;;5060038;28;20175;-78
2023/04/02 08:11:42;;;;;;;1.00;1.00;;;10.40;99.90;;;;;;5062529;28;20713;-75
2023/04/02 08:14:10;;;;;;;1.13;1.08;;;10.60;99.90;;;;;;5060675;28;20180;-76
2023/04/02 08:16:51;;;;;;;0.93;0.93;;;10.60;99.90;;;;;;5056791;28;20651;-76
2023/04/02 08:19:18;;;;;;;1.02;1.02;;;10.60;99.90;;;;;;5047046;28;20209;-76
2023/04/02 08:21:44;;;;;;;0.98;0.98;;;10.50;99.90;;;;;;5053725;28;20599;-78
2023/04/02 08:24:10;;;;;;;1.13;1.13;;;10.40;99.90;;;;;;5059496;28;20647;-79
2023/04/02 08:26:36;;;;;;;1.25;1.15;;;10.20;99.90;;;;;;5062788;28;20183;-74
2023/04/02 08:29:02;;;;;;;2.03;1.15;;;10.10;99.90;;;;;;5058968;28;20549;-74
2023/04/02 08:31:29;;;;;;;1.25;1.15;;;10.20;99.90;;;;;;5065964;28;20651;-75
2023/04/02 08:33:55;;;;;;;0.90;0.90;;;10.10;99.90;;;;;;5061961;28;20206;-74
2023/04/02 08:36:28;;;;;;;1.40;1.30;;;10.20;99.90;;;;;;5054561;28;20179;-74
2023/04/02 08:38:55;;;;;;;0.80;0.80;;;10.20;99.90;;;;;;5054911;28;20268;-75
2023/04/02 08:41:31;;;;;;;1.58;1.17;;;10.10;99.90;;;;;;5068876;28;20175;-75
2023/04/02 08:44:05;;;;;;;1.85;0.95;;;10.00;99.90;;;;;;5054247;28;20211;-75
2023/04/02 08:46:46;;;;;;;1.17;1.17;;;9.90;99.90;;;;;;5055752;28;20183;-73
2023/04/02 08:49:31;;;;;;;1.30;1.30;;;9.80;99.90;;;;;;5055840;28;20184;-73
2023/04/02 08:51:56;;;;;;;1.38;1.35;;;9.70;99.90;;;;;;5049804;28;20273;-74
2023/04/02 08:54:42;;;;;;;1.23;1.20;;;9.70;99.90;;;;;;5057439;28;20210;-73
2023/04/02 08:57:21;;;;;;;1.17;1.17;;;9.70;99.90;;;;;;5062166;28;20179;-76
2023/04/02 08:59:50;;;;;;;1.15;1.15;;;9.70;99.90;;;;;;5056976;28;20194;-76
2023/04/02 09:02:25;;;;;;;1.67;1.30;;;9.70;99.90;;;;;;5064183;28;20207;-74
2023/04/02 09:04:51;;;;;;;1.70;1.60;;;9.80;99.90;;;;;;5047057;28;20221;-73
2023/04/02 09:07:17;;;;;;;0.68;0.68;;;9.80;99.90;;;;;;5062999;28;20604;-72
2023/04/02 09:09:47;;;;;;;2.35;1.25;;;9.90;99.90;;;;;;5051798;28;20245;-73
2023/04/02 09:12:24;;;;;;;1.20;1.08;;;9.90;99.90;;;;;;5039232;28;20264;-72
2023/04/02 09:15:08;;;;;;;1.40;1.40;;;10.10;99.90;;;;;;5057143;28;20190;-73
2023/04/02 09:17:36;;;;;;;1.38;1.30;;;10.10;99.90;;;;;;5059579;28;20643;-72
2023/04/02 09:20:21;;;;;;;1.55;1.50;;;10.00;99.90;;;;;;5047177;28;20207;-73
2023/04/02 09:22:50;;;;;;;2.15;1.25;;;10.00;99.90;;;;;;5059065;28;20210;-72
2023/04/02 09:25:21;;;;;;;1.30;1.30;;;10.10;99.90;;;;;;5050797;28;20176;-74
2023/04/02 09:27:53;;;;;;;1.20;1.10;;;10.00;99.90;;;;;;5052077;28;20176;-74
2023/04/02 09:30:30;;;;;;;1.48;1.42;;;10.20;99.90;;;;;;5052956;28;20548;-74
2023/04/02 09:32:58;;;;;;;1.30;1.30;;;10.40;99.90;;;;;;5050807;28;20211;-74
2023/04/02 09:35:26;;;;;;;2.67;1.25;;;10.60;99.90;;;;;;5055665;28;20188;-74
2023/04/02 09:38:15;;;;;;;1.20;1.20;;;10.60;99.90;;;;;;5055514;28;20183;-73
2023/04/02 09:40:45;;;;;;;1.23;1.23;;;10.40;99.90;;;;;;5050177;28;20539;-73
2023/04/02 09:43:15;;;;;;;1.45;1.35;;;10.50;99.90;;;;;;5052210;28;20219;-75
2023/04/02 09:45:42;;;;;;;1.00;1.00;;;10.50;99.90;;;;;;5051371;28;20646;-74
2023/04/02 09:48:26;;;;;;;1.10;1.10;;;10.60;99.90;;;;;;5051349;28;20207;-74
2023/04/02 09:51:20;;;;;;;1.33;1.23;;;10.60;99.90;;;;;;5052055;28;20179;-74
2023/04/02 09:53:46;;;;;;;1.20;1.20;;;10.60;99.90;;;;;;5052387;28;20225;-73
2023/04/02 09:56:23;;;;;;;1.25;1.20;;;10.60;99.90;;;;;;5057528;28;20242;-77
2023/04/02 09:59:04;;;;;;;1.40;1.40;;;10.50;99.90;;;;;;5051297;28;20202;-73
2023/04/02 10:01:35;;;;;;;1.13;1.02;;;10.40;99.90;;;;;;5056491;28;20176;-73
2023/04/02 10:04:03;;;;;;;1.38;1.27;;;10.30;99.90;;;;;;5052848;28;20452;-73
2023/04/02 10:06:30;;;;;;;1.52;1.30;;;10.40;99.90;;;;;;5051249;28;20222;-74
2023/04/02 10:08:56;;;;;;;1.13;1.13;;;10.50;99.90;;;;;;5056522;28;20177;-73
2023/04/02 10:11:34;;;;;;;3.13;2.83;;;10.70;99.90;;;;;;5055666;28;20547;-74
2023/04/02 10:14:04;;;;;;;0.80;0.80;;;10.70;99.90;;;;;;5037863;28;20203;-74
2023/04/02 10:16:45;;;;;;;1.05;1.02;;;10.40;99.90;;;;;;5061993;28;20255;-72
2023/04/02 10:19:43;;;;;;;1.00;0.98;;;10.10;99.90;;;;;;5052490;28;20179;-75
2023/04/02 10:22:15;;;;;;;1.15;1.10;;;9.90;99.90;;;;;;5037023;28;20281;-73
2023/04/02 10:24:40;;;;;;;0.98;0.98;;;10.00;99.90;;;;;;5055759;28;20182;-73
2023/04/02 10:27:24;;;;;;;1.17;1.17;;;10.30;99.90;;;;;;5051503;28;20662;-73
2023/04/02 10:30:02;;;;;;;1.10;1.10;;;10.50;99.90;;;;;;5055351;28;20178;-75
2023/04/02 10:32:59;;;;;;;0.82;0.82;;;10.70;99.90;;;;;;5053091;28;20191;-74
2023/04/02 10:35:41;;;;;;;1.98;0.95;;;10.70;99.90;;;;;;5054197;28;20171;-73
2023/04/02 10:38:28;;;;;;;0.70;0.70;;;10.90;99.90;;;;;;5063604;28;20198;-74
2023/04/02 10:41:22;;;;;;;1.00;1.00;;;10.70;99.90;;;;;;5057354;28;20881;-73
2023/04/02 10:44:12;;;;;;;0.70;0.70;;;10.60;99.90;;;;;;5057394;28;20286;-74
2023/04/02 10:46:38;;;;;;;1.50;0.90;;;10.30;99.90;;;;;;5062647;28;20179;-76
2023/04/02 10:49:26;;;;;;;0.60;0.60;;;10.00;99.90;;;;;;5049921;28;20180;-73
2023/04/02 10:52:04;;;;;;;1.40;0.82;;;10.10;99.90;;;;;;5044298;28;20184;-74
2023/04/02 10:54:53;;;;;;;0.68;0.68;;;10.00;99.90;;;;;;5049851;28;20180;-73
2023/04/02 10:57:26;;;;;;;1.63;0.80;;;9.90;99.90;;;;;;5059209;28;20179;-74
2023/04/02 11:00:08;;;;;;;0.82;0.77;;;9.80;99.90;;;;;;5049476;28;20605;-73
2023/04/02 11:02:58;;;;;;;0.80;0.80;;;9.70;99.90;;;;;;5053871;28;20216;-74
2023/04/02 11:05:48;;;;;;;0.80;0.80;;;9.60;99.90;;;;;;5059101;28;20694;-73
2023/04/02 11:08:39;;;;;;;0.70;0.70;;;9.70;99.90;;;;;;5044502;28;20183;-73
2023/04/02 11:11:17;;;;;;;1.00;1.00;;;9.80;99.90;;;;;;5045824;28;20369;-73
2023/04/02 11:13:51;;;;;;;1.05;0.90;;;10.00;99.90;;;;;;5055977;28;20207;-73
2023/04/02 11:16:17;;;;;;;1.23;1.10;;;10.40;99.90;;;;;;5053002;28;20711;-73
2023/04/02 11:19:15;;;;;;;0.90;0.90;;;10.60;99.90;;;;;;5050929;28;20215;-74
2023/04/02 11:21:51;;;;;;;1.38;1.38;;;10.80;99.90;;;;;;5050857;28;20201;-73
2023/04/02 11:24:31;;;;;;;0.90;0.90;;;10.70;99.90;;;;;;5053286;28;20178;-73
2023/04/02 11:27:09;;;;;;;1.02;1.02;;;10.70;99.90;;;;;;5051119;28;20197;-72
2023/04/02 11:30:19;;;;;;;2.97;1.05;;;10.60;99.90;;;;;;5050220;28;20182;-73
2023/04/02 11:32:48;;;;;;;0.82;0.82;;;10.60;99.90;;;;;;5034181;28;20211;-73
2023/04/02 11:35:31;;;;;;;0.93;0.93;;;10.70;99.90;;;;;;5050494;28;20183;-76
2023/04/02 11:38:21;;;;;;;0.82;0.82;;;10.60;99.90;;;;;;5040296;28;20188;-73
2023/04/02 11:40:50;;;;;;;0.88;0.88;;;10.50;99.90;;;;;;5035587;28;20730;-74
2023/04/02 11:43:36;;;;;;;0.77;0.77;;;10.50;99.90;;;;;;5052141;28;20254;-74
2023/04/02 11:46:03;;;;;;;0.82;0.82;;;10.50;99.90;;;;;;5031956;28;20184;-75
2023/04/02 11:48:32;;;;;;;0.93;0.93;;;10.80;99.90;;;;;;5048766;28;20184;-74
2023/04/02 11:51:03;;;;;;;0.80;0.80;;;10.90;99.90;;;;;;5052061;28;20678;-75
2023/04/02 11:53:33;;;;;;;0.70;0.70;;;11.50;99.90;;;;;;5045395;28;20199;-74
2023/04/02 11:56:20;;;;;;;0.70;0.70;;;12.30;99.90;;;;;;5048801;28;20211;-75
2023/04/02 11:58:53;;;;;;;1.95;0.85;;;13.20;99.90;;;;;;5045398;28;20183;-73
2023/04/02 12:01:37;;;;;;;0.73;0.73;;;14.20;99.90;;;;;;5051412;28;20241;-75
2023/04/02 12:04:21;;;;;;;0.75;0.70;;;15.40;99.90;;;;;;5052901;28;20191;-74
2023/04/02 12:07:11;;;;;;;0.52;0.50;;;16.60;99.90;;;;;;5053071;28;20183;-75
2023/04/02 12:09:50;;;;;;;0.90;0.90;;;17.50;99.90;;;;;;5041296;28;20187;-74
2023/04/02 12:12:33;;;;;;;1.00;1.00;;;18.30;99.90;;;;;;5034106;28;20249;-74
2023/04/02 12:14:59;;;;;;;1.00;0.90;;;19.00;99.90;;;;;;5035283;28;20507;-76
2023/04/02 12:17:25;;;;;;;1.08;0.55;;;18.70;99.90;;;;;;5051958;28;20587;-75
2023/04/02 12:19:55;;;;;;;0.70;0.70;;;18.30;99.90;;;;;;5058997;28;20206;-75
2023/04/02 12:22:46;;;;;;;1.25;1.17;;;17.90;99.90;;;;;;5059507;28;20203;-74
2023/04/02 12:25:22;;;;;;;0.82;0.82;;;17.70;99.90;;;;;;5035219;28;20612;-75
2023/04/02 12:28:01;;;;;;;1.05;1.00;;;17.20;99.90;;;;;;5049767;28;20180;-75
2023/04/02 12:30:27;;;;;;;0.82;0.75;;;17.00;99.90;;;;;;5055894;28;20191;-73
2023/04/02 12:32:55;;;;;;;0.95;0.95;;;16.30;99.90;;;;;;5043306;28;20220;-75
2023/04/02 12:35:29;;;;;;;0.88;0.88;;;15.60;99.90;;;;;;5042096;28;20172;-77
2023/04/02 12:37:56;;;;;;;0.88;0.88;;;14.90;99.90;;;;;;5051905;28;20187;-75
2023/04/02 12:40:23;;;;;;;0.70;0.70;;;14.40;99.90;;;;;;5049781;28;20278;-75
2023/04/02 12:42:49;;;;;;;0.93;0.93;;;14.10;99.90;;;;;;5046337;28;20212;-75
2023/04/02 12:45:41;;;;;;;1.20;1.20;;;13.90;99.90;;;;;;5045225;28;20184;-74
2023/04/02 12:48:10;;;;;;;0.93;0.93;;;13.70;99.90;;;;;;5045029;28;20192;-76
2023/04/02 12:50:40;;;;;;;1.30;1.30;;;13.80;99.90;;;;;;5047542;28;20263;-74
2023/04/02 12:53:25;;;;;;;1.20;1.20;;;14.00;99.90;;;;;;5037097;28;20197;-76
2023/04/02 12:55:52;;;;;;;1.00;1.00;;;14.80;99.90;;;;;;5052590;28;20247;-75
2023/04/02 12:58:31;;;;;;;1.05;1.05;;;16.00;99.90;;;;;;5053197;28;20187;-76
2023/04/02 13:01:30;;;;;;;0.90;0.90;;;16.80;99.90;;;;;;5054534;28;20194;-75
2023/04/02 13:04:13;;;;;;;0.60;0.60;;;17.10;99.90;;;;;;5036090;28;20231;-75
2023/04/02 13:06:46;;;;;;;1.00;1.00;;;16.90;99.90;;;;;;5055568;28;20619;-76
2023/04/02 13:09:40;;;;;;;1.30;1.23;;;16.50;99.90;;;;;;5054871;28;20189;-77
2023/04/02 13:12:31;;;;;;;1.00;1.00;;;16.00;99.90;;;;;;5059468;28;20755;-76
2023/04/02 13:14:59;;;;;;;0.90;0.90;;;15.40;99.90;;;;;;5027123;28;20188;-75
2023/04/02 13:17:41;;;;;;;1.00;1.00;;;15.10;99.90;;;;;;5033406;28;20177;-78
2023/04/02 13:20:32;;;;;;;0.98;0.98;;;14.80;99.90;;;;;;5055887;28;20195;-77
2023/04/02 13:23:00;;;;;;;2.15;1.23;;;14.50;99.90;;;;;;5054796;28;20238;-75
2023/04/02 13:25:31;;;;;;;1.00;1.00;;;14.00;99.90;;;;;;5066159;28;20171;-77
2023/04/02 13:27:57;;;;;;;1.15;1.13;;;13.80;99.90;;;;;;5055066;28;20179;-76
2023/04/02 13:30:26;;;;;;;1.35;1.35;;;13.90;99.90;;;;;;5041830;28;20871;-76
2023/04/02 13:32:51;;;;;;;1.10;1.10;;;14.20;99.90;;;;;;5052752;28;20203;-76
2023/04/02 13:35:17;;;;;;;1.50;1.50;;;14.10;99.90;;;;;;5056479;28;20255;-78